sensor_id;sensor_type;location;lat;lon;timestamp;P1;durP1;ratioP1;P2;durP2;ratioP2
11986;SDS011;6053;51.382;6.768;2023-06-22T00:01:50;0.53;;;0.53;;
11986;SDS011;6053;51.382;6.768;2023-06-22T00:04:20;1.88;;;1.15;;
11986;SDS011;6053;51.382;6.768;2023-06-22T00:06:50;1.45;;;1.35;;
11986;SDS011;6053;51.382;6.768;2023-06-22T00:09:18;1.93;;;1.30;;
11986;SDS011;6053;51.382;6.768;2023-06-22T00:11:47;1.83;;;1.27;;
11986;SDS011;6053;51.382;6.768;2023-06-22T00:14:16;3.13;;;1.27;;
11986;SDS011;6053;51.382;6.768;2023-06-22T00:16:46;2.20;;;1.53;;
11986;SDS011;6053;51.382;6.768;2023-06-22T00:19:16;0.77;;;0.75;;
11986;SDS011;6053;51.382;6.768;2023-06-22T00:21:46;0.77;;;0.77;;
11986;SDS011;6053;51.382;6.768;2023-06-22T00:24:19;1.40;;;1.20;;
11986;SDS011;6053;51.382;6.768;2023-06-22T00:26:48;1.13;;;1.02;;
11986;SDS011;6053;51.382;6.768;2023-06-22T00:29:17;1.00;;;1.00;;
11986;SDS011;6053;51.382;6.768;2023-06-22T00:31:48;1.45;;;1.15;;
11986;SDS011;6053;51.382;6.768;2023-06-22T00:34:19;1.52;;;0.95;;
11986;SDS011;6053;51.382;6.768;2023-06-22T00:36:47;1.92;;;1.17;;
11986;SDS011;6053;51.382;6.768;2023-06-22T00:39:18;1.00;;;0.93;;
11986;SDS011;6053;51.382;6.768;2023-06-22T00:41:47;0.60;;;0.60;;
11986;SDS011;6053;51.382;6.768;2023-06-22T00:44:16;2.00;;;1.20;;
11986;SDS011;6053;51.382;6.768;2023-06-22T00:46:45;1.15;;;0.77;;
11986;SDS011;6053;51.382;6.768;2023-06-22T00:49:14;0.97;;;0.93;;
11986;SDS011;6053;51.382;6.768;2023-06-22T00:51:48;1.65;;;1.52;;
11986;SDS011;6053;51.382;6.768;2023-06-22T00:54:17;2.80;;;1.23;;
11986;SDS011;6053;51.382;6.768;2023-06-22T00:56:51;2.70;;;1.52;;
11986;SDS011;6053;51.382;6.768;2023-06-22T00:59:24;0.60;;;0.60;;
11986;SDS011;6053;51.382;6.768;2023-06-22T01:01:54;1.75;;;1.17;;
11986;SDS011;6053;51.382;6.768;2023-06-22T01:04:24;4.00;;;1.75;;
11986;SDS011;6053;51.382;6.768;2023-06-22T01:07:07;1.80;;;1.08;;
11986;SDS011;6053;51.382;6.768;2023-06-22T01:10:02;1.13;;;0.77;;
11986;SDS011;6053;51.382;6.768;2023-06-22T01:12:40;1.10;;;1.00;;
11986;SDS011;6053;51.382;6.768;2023-06-22T01:15:18;0.73;;;0.73;;
11986;SDS011;6053;51.382;6.768;2023-06-22T01:17:56;1.70;;;1.55;;
11986;SDS011;6053;51.382;6.768;2023-06-22T01:20:29;0.60;;;0.60;;
11986;SDS011;6053;51.382;6.768;2023-06-22T01:23:05;1.33;;;1.23;;
11986;SDS011;6053;51.382;6.768;2023-06-22T01:25:43;2.53;;;1.20;;
11986;SDS011;6053;51.382;6.768;2023-06-22T01:31:20;1.00;;;0.90;;
11986;SDS011;6053;51.382;6.768;2023-06-22T01:34:01;1.60;;;1.20;;
11986;SDS011;6053;51.382;6.768;2023-06-22T01:36:32;0.52;;;0.52;;
11986;SDS011;6053;51.382;6.768;2023-06-22T01:39:03;0.98;;;0.88;;
11986;SDS011;6053;51.382;6.768;2023-06-22T01:41:34;2.33;;;1.45;;
11986;SDS011;6053;51.382;6.768;2023-06-22T01:44:08;1.40;;;1.10;;
11986;SDS011;6053;51.382;6.768;2023-06-22T01:46:40;1.08;;;0.60;;
11986;SDS011;6053;51.382;6.768;2023-06-22T01:49:09;1.50;;;1.10;;
11986;SDS011;6053;51.382;6.768;2023-06-22T01:51:39;2.88;;;1.05;;
11986;SDS011;6053;51.382;6.768;2023-06-22T01:54:07;1.08;;;0.65;;
11986;SDS011;6053;51.382;6.768;2023-06-22T01:56:36;0.40;;;0.40;;
11986;SDS011;6053;51.382;6.768;2023-06-22T01:59:09;2.67;;;1.40;;
11986;SDS011;6053;51.382;6.768;2023-06-22T02:01:47;2.15;;;1.35;;
11986;SDS011;6053;51.382;6.768;2023-06-22T02:04:23;1.58;;;1.42;;
11986;SDS011;6053;51.382;6.768;2023-06-22T02:06:56;1.38;;;0.80;;
11986;SDS011;6053;51.382;6.768;2023-06-22T02:09:29;2.07;;;1.47;;
11986;SDS011;6053;51.382;6.768;2023-06-22T02:11:59;0.40;;;0.40;;
11986;SDS011;6053;51.382;6.768;2023-06-22T02:14:32;2.50;;;1.30;;
11986;SDS011;6053;51.382;6.768;2023-06-22T02:17:02;1.08;;;0.98;;
11986;SDS011;6053;51.382;6.768;2023-06-22T02:19:35;0.63;;;0.63;;
11986;SDS011;6053;51.382;6.768;2023-06-22T02:22:05;1.27;;;1.17;;
11986;SDS011;6053;51.382;6.768;2023-06-22T02:24:34;3.80;;;1.37;;
11986;SDS011;6053;51.382;6.768;2023-06-22T02:27:04;1.70;;;1.60;;
11986;SDS011;6053;51.382;6.768;2023-06-22T02:29:35;2.40;;;1.67;;
11986;SDS011;6053;51.382;6.768;2023-06-22T02:32:05;1.75;;;1.65;;
11986;SDS011;6053;51.382;6.768;2023-06-22T02:34:35;1.47;;;1.37;;
11986;SDS011;6053;51.382;6.768;2023-06-22T02:37:06;1.63;;;1.52;;
11986;SDS011;6053;51.382;6.768;2023-06-22T02:39:37;0.60;;;0.60;;
11986;SDS011;6053;51.382;6.768;2023-06-22T02:42:07;2.10;;;1.10;;
11986;SDS011;6053;51.382;6.768;2023-06-22T02:44:39;2.20;;;1.40;;
11986;SDS011;6053;51.382;6.768;2023-06-22T02:47:09;1.73;;;1.30;;
11986;SDS011;6053;51.382;6.768;2023-06-22T02:49:38;1.60;;;1.48;;
11986;SDS011;6053;51.382;6.768;2023-06-22T02:52:07;2.80;;;1.43;;
11986;SDS011;6053;51.382;6.768;2023-06-22T02:54:36;1.55;;;1.45;;
11986;SDS011;6053;51.382;6.768;2023-06-22T02:57:05;0.75;;;0.75;;
11986;SDS011;6053;51.382;6.768;2023-06-22T02:59:41;1.57;;;1.43;;
11986;SDS011;6053;51.382;6.768;2023-06-22T03:02:10;1.13;;;1.03;;
11986;SDS011;6053;51.382;6.768;2023-06-22T03:04:39;0.80;;;0.80;;
11986;SDS011;6053;51.382;6.768;2023-06-22T03:07:10;0.98;;;0.98;;
11986;SDS011;6053;51.382;6.768;2023-06-22T03:09:39;2.55;;;1.70;;
11986;SDS011;6053;51.382;6.768;2023-06-22T03:12:09;0.90;;;0.90;;
11986;SDS011;6053;51.382;6.768;2023-06-22T03:14:38;0.60;;;0.60;;
11986;SDS011;6053;51.382;6.768;2023-06-22T03:17:09;1.63;;;1.52;;
11986;SDS011;6053;51.382;6.768;2023-06-22T03:19:38;0.77;;;0.77;;
11986;SDS011;6053;51.382;6.768;2023-06-22T03:22:08;0.65;;;0.65;;
11986;SDS011;6053;51.382;6.768;2023-06-22T03:24:39;1.05;;;0.68;;
11986;SDS011;6053;51.382;6.768;2023-06-22T03:27:08;1.63;;;1.53;;
11986;SDS011;6053;51.382;6.768;2023-06-22T03:29:36;0.75;;;0.75;;
11986;SDS011;6053;51.382;6.768;2023-06-22T03:32:08;1.10;;;0.57;;
11986;SDS011;6053;51.382;6.768;2023-06-22T03:34:37;2.70;;;1.50;;
11986;SDS011;6053;51.382;6.768;2023-06-22T03:37:07;1.60;;;1.50;;
11986;SDS011;6053;51.382;6.768;2023-06-22T03:39:36;1.10;;;1.10;;
11986;SDS011;6053;51.382;6.768;2023-06-22T03:42:06;1.55;;;1.40;;
11986;SDS011;6053;51.382;6.768;2023-06-22T03:44:35;1.38;;;1.27;;
11986;SDS011;6053;51.382;6.768;2023-06-22T03:47:04;3.00;;;1.53;;
11986;SDS011;6053;51.382;6.768;2023-06-22T03:49:35;1.10;;;1.00;;
11986;SDS011;6053;51.382;6.768;2023-06-22T03:52:04;1.50;;;1.40;;
11986;SDS011;6053;51.382;6.768;2023-06-22T03:54:34;2.30;;;2.10;;
11986;SDS011;6053;51.382;6.768;2023-06-22T03:57:03;1.77;;;1.67;;
11986;SDS011;6053;51.382;6.768;2023-06-22T03:59:33;2.20;;;1.98;;
11986;SDS011;6053;51.382;6.768;2023-06-22T04:02:03;2.78;;;2.05;;
11986;SDS011;6053;51.382;6.768;2023-06-22T04:04:32;1.90;;;1.67;;
11986;SDS011;6053;51.382;6.768;2023-06-22T04:07:04;1.45;;;1.35;;
11986;SDS011;6053;51.382;6.768;2023-06-22T04:09:34;1.50;;;1.27;;
11986;SDS011;6053;51.382;6.768;2023-06-22T04:12:04;2.47;;;1.77;;
11986;SDS011;6053;51.382;6.768;2023-06-22T04:14:35;2.28;;;1.65;;
11986;SDS011;6053;51.382;6.768;2023-06-22T04:17:04;2.83;;;2.20;;
11986;SDS011;6053;51.382;6.768;2023-06-22T04:19:34;0.70;;;0.70;;
11986;SDS011;6053;51.382;6.768;2023-06-22T04:22:04;2.72;;;2.15;;
11986;SDS011;6053;51.382;6.768;2023-06-22T04:24:34;1.58;;;1.48;;
11986;SDS011;6053;51.382;6.768;2023-06-22T04:27:05;3.23;;;2.20;;
11986;SDS011;6053;51.382;6.768;2023-06-22T04:29:34;3.30;;;1.67;;
11986;SDS011;6053;51.382;6.768;2023-06-22T04:32:05;2.55;;;2.35;;
11986;SDS011;6053;51.382;6.768;2023-06-22T04:34:36;1.15;;;1.05;;
11986;SDS011;6053;51.382;6.768;2023-06-22T04:37:06;1.70;;;1.60;;
11986;SDS011;6053;51.382;6.768;2023-06-22T04:39:34;1.70;;;1.60;;
11986;SDS011;6053;51.382;6.768;2023-06-22T04:42:03;1.13;;;1.13;;
11986;SDS011;6053;51.382;6.768;2023-06-22T04:44:32;2.47;;;1.90;;
11986;SDS011;6053;51.382;6.768;2023-06-22T04:47:01;2.37;;;2.03;;
11986;SDS011;6053;51.382;6.768;2023-06-22T04:49:32;1.67;;;1.58;;
11986;SDS011;6053;51.382;6.768;2023-06-22T04:52:04;1.77;;;1.67;;
11986;SDS011;6053;51.382;6.768;2023-06-22T04:54:36;2.40;;;1.93;;
11986;SDS011;6053;51.382;6.768;2023-06-22T04:57:13;1.77;;;1.67;;
11986;SDS011;6053;51.382;6.768;2023-06-22T04:59:42;1.45;;;1.35;;
11986;SDS011;6053;51.382;6.768;2023-06-22T05:02:11;2.95;;;1.92;;
11986;SDS011;6053;51.382;6.768;2023-06-22T05:04:39;3.38;;;3.10;;
11986;SDS011;6053;51.382;6.768;2023-06-22T05:07:09;2.60;;;2.05;;
11986;SDS011;6053;51.382;6.768;2023-06-22T05:09:37;3.25;;;2.95;;
11986;SDS011;6053;51.382;6.768;2023-06-22T05:12:06;2.97;;;2.67;;
11986;SDS011;6053;51.382;6.768;2023-06-22T05:14:36;2.40;;;2.28;;
11986;SDS011;6053;51.382;6.768;2023-06-22T05:17:05;2.50;;;2.30;;
11986;SDS011;6053;51.382;6.768;2023-06-22T05:19:41;1.98;;;1.77;;
11986;SDS011;6053;51.382;6.768;2023-06-22T05:22:12;1.87;;;1.73;;
11986;SDS011;6053;51.382;6.768;2023-06-22T05:24:42;3.25;;;2.50;;
11986;SDS011;6053;51.382;6.768;2023-06-22T05:27:10;2.50;;;1.85;;
11986;SDS011;6053;51.382;6.768;2023-06-22T05:29:39;2.63;;;2.17;;
11986;SDS011;6053;51.382;6.768;2023-06-22T05:32:09;2.10;;;1.95;;
11986;SDS011;6053;51.382;6.768;2023-06-22T05:34:38;3.35;;;2.70;;
11986;SDS011;6053;51.382;6.768;2023-06-22T05:37:06;2.13;;;1.93;;
11986;SDS011;6053;51.382;6.768;2023-06-22T05:39:37;3.17;;;2.85;;
11986;SDS011;6053;51.382;6.768;2023-06-22T05:42:05;3.55;;;2.47;;
11986;SDS011;6053;51.382;6.768;2023-06-22T05:44:36;2.10;;;1.93;;
11986;SDS011;6053;51.382;6.768;2023-06-22T05:47:06;1.75;;;1.65;;
11986;SDS011;6053;51.382;6.768;2023-06-22T05:49:34;3.35;;;2.70;;
11986;SDS011;6053;51.382;6.768;2023-06-22T05:52:03;2.88;;;2.67;;
11986;SDS011;6053;51.382;6.768;2023-06-22T05:54:32;2.50;;;2.30;;
11986;SDS011;6053;51.382;6.768;2023-06-22T05:57:02;3.67;;;2.85;;
11986;SDS011;6053;51.382;6.768;2023-06-22T05:59:31;2.42;;;2.20;;
11986;SDS011;6053;51.382;6.768;2023-06-22T06:01:59;3.47;;;2.30;;
11986;SDS011;6053;51.382;6.768;2023-06-22T06:04:28;3.47;;;2.55;;
11986;SDS011;6053;51.382;6.768;2023-06-22T06:06:56;2.88;;;2.13;;
11986;SDS011;6053;51.382;6.768;2023-06-22T06:09:25;2.67;;;2.47;;
11986;SDS011;6053;51.382;6.768;2023-06-22T06:11:53;3.65;;;2.70;;
11986;SDS011;6053;51.382;6.768;2023-06-22T06:14:23;2.80;;;2.60;;
11986;SDS011;6053;51.382;6.768;2023-06-22T06:16:52;4.03;;;2.00;;
11986;SDS011;6053;51.382;6.768;2023-06-22T06:19:21;2.42;;;2.08;;
11986;SDS011;6053;51.382;6.768;2023-06-22T06:21:49;2.58;;;2.38;;
11986;SDS011;6053;51.382;6.768;2023-06-22T06:24:18;3.17;;;2.13;;
11986;SDS011;6053;51.382;6.768;2023-06-22T06:26:46;1.80;;;1.65;;
11986;SDS011;6053;51.382;6.768;2023-06-22T06:29:15;1.88;;;1.77;;
11986;SDS011;6053;51.382;6.768;2023-06-22T06:31:45;2.72;;;2.45;;
11986;SDS011;6053;51.382;6.768;2023-06-22T06:34:14;3.28;;;2.97;;
11986;SDS011;6053;51.382;6.768;2023-06-22T06:36:43;2.22;;;1.80;;
11986;SDS011;6053;51.382;6.768;2023-06-22T06:39:11;2.70;;;2.13;;
11986;SDS011;6053;51.382;6.768;2023-06-22T06:41:40;3.10;;;2.17;;
11986;SDS011;6053;51.382;6.768;2023-06-22T06:44:09;4.88;;;3.30;;
11986;SDS011;6053;51.382;6.768;2023-06-22T06:46:37;4.28;;;3.25;;
11986;SDS011;6053;51.382;6.768;2023-06-22T06:49:07;3.90;;;2.80;;
11986;SDS011;6053;51.382;6.768;2023-06-22T06:51:36;2.65;;;2.45;;
11986;SDS011;6053;51.382;6.768;2023-06-22T06:54:04;3.40;;;2.53;;
11986;SDS011;6053;51.382;6.768;2023-06-22T06:56:33;4.50;;;3.03;;
11986;SDS011;6053;51.382;6.768;2023-06-22T06:59:02;3.27;;;2.97;;
11986;SDS011;6053;51.382;6.768;2023-06-22T07:01:30;3.95;;;3.35;;
11986;SDS011;6053;51.382;6.768;2023-06-22T07:04:00;3.92;;;3.03;;
11986;SDS011;6053;51.382;6.768;2023-06-22T07:06:30;3.40;;;3.10;;
11986;SDS011;6053;51.382;6.768;2023-06-22T07:09:00;4.85;;;3.72;;
11986;SDS011;6053;51.382;6.768;2023-06-22T07:11:29;2.23;;;1.77;;
11986;SDS011;6053;51.382;6.768;2023-06-22T07:13:58;3.95;;;3.65;;
11986;SDS011;6053;51.382;6.768;2023-06-22T07:16:27;3.65;;;2.65;;
11986;SDS011;6053;51.382;6.768;2023-06-22T07:18:57;4.77;;;3.50;;
11986;SDS011;6053;51.382;6.768;2023-06-22T07:21:26;3.45;;;3.15;;
11986;SDS011;6053;51.382;6.768;2023-06-22T07:23:56;3.83;;;3.43;;
11986;SDS011;6053;51.382;6.768;2023-06-22T07:26:25;3.60;;;3.30;;
11986;SDS011;6053;51.382;6.768;2023-06-22T07:28:53;4.45;;;3.45;;
11986;SDS011;6053;51.382;6.768;2023-06-22T07:31:23;3.17;;;2.70;;
11986;SDS011;6053;51.382;6.768;2023-06-22T07:33:52;4.30;;;3.70;;
11986;SDS011;6053;51.382;6.768;2023-06-22T07:36:21;2.75;;;2.53;;
11986;SDS011;6053;51.382;6.768;2023-06-22T07:38:50;5.40;;;3.90;;
11986;SDS011;6053;51.382;6.768;2023-06-22T07:41:20;5.47;;;4.35;;
11986;SDS011;6053;51.382;6.768;2023-06-22T07:43:49;5.63;;;4.43;;
11986;SDS011;6053;51.382;6.768;2023-06-22T07:46:17;3.40;;;3.10;;
11986;SDS011;6053;51.382;6.768;2023-06-22T07:48:46;4.77;;;4.23;;
11986;SDS011;6053;51.382;6.768;2023-06-22T07:51:15;2.58;;;2.38;;
11986;SDS011;6053;51.382;6.768;2023-06-22T07:53:44;3.65;;;3.25;;
11986;SDS011;6053;51.382;6.768;2023-06-22T07:56:12;4.70;;;4.30;;
11986;SDS011;6053;51.382;6.768;2023-06-22T07:58:46;4.53;;;3.40;;
11986;SDS011;6053;51.382;6.768;2023-06-22T08:01:15;2.45;;;2.25;;
11986;SDS011;6053;51.382;6.768;2023-06-22T08:03:47;3.83;;;3.47;;
11986;SDS011;6053;51.382;6.768;2023-06-22T08:06:16;5.00;;;3.93;;
11986;SDS011;6053;51.382;6.768;2023-06-22T08:08:45;2.55;;;2.35;;
11986;SDS011;6053;51.382;6.768;2023-06-22T08:11:15;3.33;;;3.00;;
11986;SDS011;6053;51.382;6.768;2023-06-22T08:13:44;5.38;;;4.25;;
11986;SDS011;6053;51.382;6.768;2023-06-22T08:16:13;2.95;;;2.75;;
11986;SDS011;6053;51.382;6.768;2023-06-22T08:18:42;3.10;;;2.80;;
11986;SDS011;6053;51.382;6.768;2023-06-22T08:21:11;9.80;;;4.70;;
11986;SDS011;6053;51.382;6.768;2023-06-22T08:23:40;2.63;;;2.42;;
11986;SDS011;6053;51.382;6.768;2023-06-22T08:26:08;4.63;;;3.83;;
11986;SDS011;6053;51.382;6.768;2023-06-22T08:28:37;3.17;;;2.90;;
11986;SDS011;6053;51.382;6.768;2023-06-22T08:31:05;5.15;;;4.45;;
11986;SDS011;6053;51.382;6.768;2023-06-22T08:33:35;4.50;;;4.10;;
11986;SDS011;6053;51.382;6.768;2023-06-22T08:36:15;3.43;;;3.13;;
11986;SDS011;6053;51.382;6.768;2023-06-22T08:38:43;3.22;;;2.90;;
11986;SDS011;6053;51.382;6.768;2023-06-22T08:41:17;2.03;;;1.93;;
11986;SDS011;6053;51.382;6.768;2023-06-22T08:43:46;5.18;;;3.63;;
11986;SDS011;6053;51.382;6.768;2023-06-22T08:46:15;5.45;;;4.68;;
11986;SDS011;6053;51.382;6.768;2023-06-22T08:48:49;5.82;;;4.53;;
11986;SDS011;6053;51.382;6.768;2023-06-22T08:51:18;5.65;;;4.13;;
11986;SDS011;6053;51.382;6.768;2023-06-22T08:53:47;5.53;;;3.65;;
11986;SDS011;6053;51.382;6.768;2023-06-22T08:56:15;3.83;;;3.40;;
11986;SDS011;6053;51.382;6.768;2023-06-22T08:58:44;3.80;;;3.10;;
11986;SDS011;6053;51.382;6.768;2023-06-22T09:01:12;3.83;;;3.22;;
11986;SDS011;6053;51.382;6.768;2023-06-22T09:03:42;5.80;;;4.47;;
11986;SDS011;6053;51.382;6.768;2023-06-22T09:06:12;3.33;;;3.03;;
11986;SDS011;6053;51.382;6.768;2023-06-22T09:08:42;8.27;;;4.80;;
11986;SDS011;6053;51.382;6.768;2023-06-22T09:11:12;5.78;;;4.50;;
11986;SDS011;6053;51.382;6.768;2023-06-22T09:13:41;7.28;;;5.03;;
11986;SDS011;6053;51.382;6.768;2023-06-22T09:16:10;3.90;;;3.60;;
11986;SDS011;6053;51.382;6.768;2023-06-22T09:18:39;5.93;;;4.90;;
11986;SDS011;6053;51.382;6.768;2023-06-22T09:21:08;6.47;;;5.50;;
11986;SDS011;6053;51.382;6.768;2023-06-22T09:23:38;6.28;;;5.15;;
11986;SDS011;6053;51.382;6.768;2023-06-22T09:26:07;8.17;;;4.27;;
11986;SDS011;6053;51.382;6.768;2023-06-22T09:28:35;4.13;;;3.72;;
11986;SDS011;6053;51.382;6.768;2023-06-22T09:31:04;4.47;;;4.05;;
11986;SDS011;6053;51.382;6.768;2023-06-22T09:33:33;6.75;;;4.95;;
11986;SDS011;6053;51.382;6.768;2023-06-22T09:36:02;5.43;;;4.30;;
11986;SDS011;6053;51.382;6.768;2023-06-22T09:38:34;6.70;;;4.07;;
11986;SDS011;6053;51.382;6.768;2023-06-22T09:41:04;5.13;;;4.00;;
11986;SDS011;6053;51.382;6.768;2023-06-22T09:43:33;5.07;;;4.27;;
11986;SDS011;6053;51.382;6.768;2023-06-22T09:46:02;3.63;;;3.30;;
11986;SDS011;6053;51.382;6.768;2023-06-22T09:48:31;4.97;;;4.47;;
11986;SDS011;6053;51.382;6.768;2023-06-22T09:50:59;3.80;;;3.20;;
11986;SDS011;6053;51.382;6.768;2023-06-22T09:53:28;4.90;;;4.07;;
11986;SDS011;6053;51.382;6.768;2023-06-22T09:55:56;4.65;;;3.72;;
11986;SDS011;6053;51.382;6.768;2023-06-22T09:58:27;5.47;;;3.88;;
11986;SDS011;6053;51.382;6.768;2023-06-22T10:00:55;3.78;;;3.20;;
11986;SDS011;6053;51.382;6.768;2023-06-22T10:03:24;5.20;;;4.00;;
11986;SDS011;6053;51.382;6.768;2023-06-22T10:05:53;4.82;;;4.00;;
11986;SDS011;6053;51.382;6.768;2023-06-22T10:08:21;3.92;;;3.55;;
11986;SDS011;6053;51.382;6.768;2023-06-22T10:10:50;2.23;;;2.03;;
11986;SDS011;6053;51.382;6.768;2023-06-22T10:13:19;3.65;;;3.28;;
11986;SDS011;6053;51.382;6.768;2023-06-22T10:15:49;3.90;;;2.97;;
11986;SDS011;6053;51.382;6.768;2023-06-22T10:18:18;3.80;;;3.30;;
11986;SDS011;6053;51.382;6.768;2023-06-22T10:20:47;4.07;;;3.47;;
11986;SDS011;6053;51.382;6.768;2023-06-22T10:23:17;7.25;;;3.60;;
11986;SDS011;6053;51.382;6.768;2023-06-22T10:25:46;4.00;;;3.65;;
11986;SDS011;6053;51.382;6.768;2023-06-22T10:28:15;3.43;;;3.13;;
11986;SDS011;6053;51.382;6.768;2023-06-22T10:30:44;8.82;;;2.50;;
11986;SDS011;6053;51.382;6.768;2023-06-22T10:33:14;4.37;;;3.97;;
11986;SDS011;6053;51.382;6.768;2023-06-22T10:35:43;5.07;;;3.63;;
11986;SDS011;6053;51.382;6.768;2023-06-22T10:38:11;3.10;;;2.83;;
11986;SDS011;6053;51.382;6.768;2023-06-22T10:40:40;3.03;;;2.75;;
11986;SDS011;6053;51.382;6.768;2023-06-22T10:43:09;4.10;;;3.50;;
11986;SDS011;6053;51.382;6.768;2023-06-22T10:45:38;5.13;;;3.70;;
11986;SDS011;6053;51.382;6.768;2023-06-22T10:48:07;3.75;;;3.17;;
11986;SDS011;6053;51.382;6.768;2023-06-22T10:50:37;3.70;;;3.00;;
11986;SDS011;6053;51.382;6.768;2023-06-22T10:53:06;4.00;;;3.25;;
11986;SDS011;6053;51.382;6.768;2023-06-22T10:55:34;3.60;;;3.30;;
11986;SDS011;6053;51.382;6.768;2023-06-22T10:58:21;2.83;;;2.63;;
11986;SDS011;6053;51.382;6.768;2023-06-22T11:00:50;4.35;;;3.95;;
11986;SDS011;6053;51.382;6.768;2023-06-22T11:03:19;5.20;;;3.60;;
11986;SDS011;6053;51.382;6.768;2023-06-22T11:05:49;1.67;;;1.52;;
11986;SDS011;6053;51.382;6.768;2023-06-22T11:08:17;4.03;;;2.23;;
11986;SDS011;6053;51.382;6.768;2023-06-22T11:10:46;1.83;;;1.70;;
11986;SDS011;6053;51.382;6.768;2023-06-22T11:13:15;4.07;;;3.58;;
11986;SDS011;6053;51.382;6.768;2023-06-22T11:15:44;3.72;;;3.42;;
11986;SDS011;6053;51.382;6.768;2023-06-22T11:18:13;4.20;;;3.67;;
11986;SDS011;6053;51.382;6.768;2023-06-22T11:20:41;3.20;;;1.60;;
11986;SDS011;6053;51.382;6.768;2023-06-22T11:23:11;1.92;;;1.63;;
11986;SDS011;6053;51.382;6.768;2023-06-22T11:25:40;2.13;;;1.73;;
11986;SDS011;6053;51.382;6.768;2023-06-22T11:28:09;1.70;;;1.60;;
11986;SDS011;6053;51.382;6.768;2023-06-22T11:30:37;3.15;;;2.38;;
11986;SDS011;6053;51.382;6.768;2023-06-22T11:33:06;6.50;;;3.80;;
11986;SDS011;6053;51.382;6.768;2023-06-22T11:35:35;5.20;;;2.92;;
11986;SDS011;6053;51.382;6.768;2023-06-22T11:38:03;1.50;;;1.40;;
11986;SDS011;6053;51.382;6.768;2023-06-22T11:40:33;3.00;;;1.87;;
11986;SDS011;6053;51.382;6.768;2023-06-22T11:43:02;3.08;;;2.63;;
11986;SDS011;6053;51.382;6.768;2023-06-22T11:45:31;5.50;;;4.33;;
11986;SDS011;6053;51.382;6.768;2023-06-22T11:47:59;5.72;;;4.45;;
11986;SDS011;6053;51.382;6.768;2023-06-22T11:50:28;5.10;;;4.10;;
11986;SDS011;6053;51.382;6.768;2023-06-22T11:53:00;6.32;;;4.03;;
11986;SDS011;6053;51.382;6.768;2023-06-22T11:55:30;8.25;;;4.28;;
11986;SDS011;6053;51.382;6.768;2023-06-22T11:58:00;9.68;;;5.47;;
11986;SDS011;6053;51.382;6.768;2023-06-22T12:00:31;8.53;;;4.60;;
11986;SDS011;6053;51.382;6.768;2023-06-22T12:03:15;6.35;;;4.30;;
11986;SDS011;6053;51.382;6.768;2023-06-22T12:05:44;3.85;;;3.30;;
11986;SDS011;6053;51.382;6.768;2023-06-22T12:08:13;2.45;;;2.05;;
11986;SDS011;6053;51.382;6.768;2023-06-22T12:10:42;5.50;;;4.72;;
11986;SDS011;6053;51.382;6.768;2023-06-22T12:13:12;4.38;;;3.10;;
11986;SDS011;6053;51.382;6.768;2023-06-22T12:15:40;3.35;;;2.80;;
11986;SDS011;6053;51.382;6.768;2023-06-22T12:18:09;1.42;;;1.33;;
11986;SDS011;6053;51.382;6.768;2023-06-22T12:20:38;2.45;;;2.25;;
11986;SDS011;6053;51.382;6.768;2023-06-22T12:23:06;6.88;;;5.47;;
11986;SDS011;6053;51.382;6.768;2023-06-22T12:25:35;5.15;;;4.65;;
11986;SDS011;6053;51.382;6.768;2023-06-22T12:28:04;7.10;;;4.63;;
11986;SDS011;6053;51.382;6.768;2023-06-22T12:30:34;5.50;;;4.57;;
11986;SDS011;6053;51.382;6.768;2023-06-22T12:33:02;6.80;;;4.37;;
11986;SDS011;6053;51.382;6.768;2023-06-22T12:35:31;4.63;;;4.13;;
11986;SDS011;6053;51.382;6.768;2023-06-22T12:38:00;6.05;;;4.50;;
11986;SDS011;6053;51.382;6.768;2023-06-22T12:40:29;6.95;;;5.40;;
11986;SDS011;6053;51.382;6.768;2023-06-22T12:42:59;6.13;;;5.38;;
11986;SDS011;6053;51.382;6.768;2023-06-22T12:45:28;4.68;;;3.88;;
11986;SDS011;6053;51.382;6.768;2023-06-22T12:48:01;9.68;;;5.50;;
11986;SDS011;6053;51.382;6.768;2023-06-22T12:50:30;7.53;;;6.20;;
11986;SDS011;6053;51.382;6.768;2023-06-22T12:52:59;6.83;;;5.27;;
11986;SDS011;6053;51.382;6.768;2023-06-22T12:55:29;4.83;;;3.90;;
11986;SDS011;6053;51.382;6.768;2023-06-22T12:57:58;7.45;;;5.55;;
11986;SDS011;6053;51.382;6.768;2023-06-22T13:00:26;6.82;;;5.93;;
11986;SDS011;6053;51.382;6.768;2023-06-22T13:02:55;4.63;;;4.20;;
11986;SDS011;6053;51.382;6.768;2023-06-22T13:05:26;5.47;;;3.55;;
11986;SDS011;6053;51.382;6.768;2023-06-22T13:07:54;4.15;;;3.75;;
11986;SDS011;6053;51.382;6.768;2023-06-22T13:10:23;6.17;;;5.57;;
11986;SDS011;6053;51.382;6.768;2023-06-22T13:12:52;7.30;;;5.47;;
11986;SDS011;6053;51.382;6.768;2023-06-22T13:15:26;4.57;;;4.10;;
11986;SDS011;6053;51.382;6.768;2023-06-22T13:17:56;3.23;;;3.00;;
11986;SDS011;6053;51.382;6.768;2023-06-22T13:20:26;5.05;;;4.10;;
11986;SDS011;6053;51.382;6.768;2023-06-22T13:22:56;5.93;;;4.27;;
11986;SDS011;6053;51.382;6.768;2023-06-22T13:25:24;7.47;;;4.90;;
11986;SDS011;6053;51.382;6.768;2023-06-22T13:27:54;6.70;;;5.00;;
11986;SDS011;6053;51.382;6.768;2023-06-22T13:30:22;4.97;;;4.50;;
11986;SDS011;6053;51.382;6.768;2023-06-22T13:32:51;5.70;;;5.10;;
11986;SDS011;6053;51.382;6.768;2023-06-22T13:35:20;5.10;;;4.63;;
11986;SDS011;6053;51.382;6.768;2023-06-22T13:37:50;5.95;;;4.90;;
11986;SDS011;6053;51.382;6.768;2023-06-22T13:40:18;8.82;;;6.03;;
11986;SDS011;6053;51.382;6.768;2023-06-22T13:42:47;6.85;;;5.57;;
11986;SDS011;6053;51.382;6.768;2023-06-22T13:45:16;6.07;;;5.50;;
11986;SDS011;6053;51.382;6.768;2023-06-22T13:47:46;5.83;;;5.23;;
11986;SDS011;6053;51.382;6.768;2023-06-22T13:50:15;9.70;;;6.55;;
11986;SDS011;6053;51.382;6.768;2023-06-22T13:52:43;6.38;;;5.78;;
11986;SDS011;6053;51.382;6.768;2023-06-22T13:55:13;5.18;;;4.72;;
11986;SDS011;6053;51.382;6.768;2023-06-22T13:57:42;5.75;;;4.80;;
11986;SDS011;6053;51.382;6.768;2023-06-22T14:00:11;6.35;;;5.70;;
11986;SDS011;6053;51.382;6.768;2023-06-22T14:02:40;6.68;;;5.95;;
11986;SDS011;6053;51.382;6.768;2023-06-22T14:05:09;6.67;;;6.07;;
11986;SDS011;6053;51.382;6.768;2023-06-22T14:07:38;7.78;;;7.07;;
11986;SDS011;6053;51.382;6.768;2023-06-22T14:10:07;7.80;;;7.00;;
11986;SDS011;6053;51.382;6.768;2023-06-22T14:12:38;6.63;;;6.03;;
11986;SDS011;6053;51.382;6.768;2023-06-22T14:15:07;5.63;;;4.93;;
11986;SDS011;6053;51.382;6.768;2023-06-22T14:17:35;6.70;;;6.07;;
11986;SDS011;6053;51.382;6.768;2023-06-22T14:20:05;6.18;;;5.65;;
11986;SDS011;6053;51.382;6.768;2023-06-22T14:22:35;5.18;;;4.75;;
11986;SDS011;6053;51.382;6.768;2023-06-22T14:25:04;3.88;;;3.58;;
11986;SDS011;6053;51.382;6.768;2023-06-22T14:27:33;7.18;;;6.35;;
11986;SDS011;6053;51.382;6.768;2023-06-22T14:30:04;6.13;;;5.63;;
11986;SDS011;6053;51.382;6.768;2023-06-22T14:32:33;7.73;;;5.20;;
11986;SDS011;6053;51.382;6.768;2023-06-22T14:35:02;6.03;;;5.25;;
11986;SDS011;6053;51.382;6.768;2023-06-22T14:37:31;5.18;;;4.72;;
11986;SDS011;6053;51.382;6.768;2023-06-22T14:40:00;6.50;;;5.90;;
11986;SDS011;6053;51.382;6.768;2023-06-22T14:42:29;6.28;;;5.75;;
11986;SDS011;6053;51.382;6.768;2023-06-22T14:44:57;5.32;;;4.78;;
11986;SDS011;6053;51.382;6.768;2023-06-22T14:47:27;5.63;;;5.13;;
11986;SDS011;6053;51.382;6.768;2023-06-22T14:49:56;8.07;;;7.00;;
11986;SDS011;6053;51.382;6.768;2023-06-22T14:52:26;6.25;;;5.65;;
11986;SDS011;6053;51.382;6.768;2023-06-22T14:54:55;5.57;;;5.05;;
11986;SDS011;6053;51.382;6.768;2023-06-22T14:57:23;9.27;;;6.57;;
11986;SDS011;6053;51.382;6.768;2023-06-22T14:59:52;7.45;;;6.10;;
11986;SDS011;6053;51.382;6.768;2023-06-22T15:02:21;6.25;;;5.65;;
11986;SDS011;6053;51.382;6.768;2023-06-22T15:04:51;6.28;;;5.75;;
11986;SDS011;6053;51.382;6.768;2023-06-22T15:07:20;4.47;;;4.05;;
11986;SDS011;6053;51.382;6.768;2023-06-22T15:09:49;7.10;;;6.00;;
11986;SDS011;6053;51.382;6.768;2023-06-22T15:12:17;5.95;;;5.35;;
11986;SDS011;6053;51.382;6.768;2023-06-22T15:14:46;6.53;;;5.35;;
11986;SDS011;6053;51.382;6.768;2023-06-22T15:17:15;4.85;;;4.45;;
11986;SDS011;6053;51.382;6.768;2023-06-22T15:19:43;5.20;;;4.70;;